Time;durP1;ratioP1;P1;durP2;ratioP2;P2;SDS_P1;SDS_P2;PMS_P1;PMS_P2;Temp;Humidity;BMP_temperature;BMP_pressure;BME280_temperature;BME280_humidity;BME280_pressure;Samples;Min_cycle;Max_cycle;Signal;HPM_P1;HPM_P2
2021/08/07 00:02:41;;;;;;;;;11.20;11.20;;;;;26.33;55.50;100026.22;4915997;29;8851;-73
2021/08/07 00:05:37;;;;;;;;;10.60;10.60;;;;;26.01;54.98;100027.25;4915803;29;8846;-73
2021/08/07 00:08:33;;;;;;;;;10.00;10.00;;;;;25.81;56.14;100018.97;4915900;29;9075;-73
2021/08/07 00:11:29;;;;;;;;;13.20;13.20;;;;;26.01;55.05;100035.75;4916614;29;8883;-73
2021/08/07 00:14:25;;;;;;;;;13.00;12.40;;;;;26.04;55.79;100026.34;4916064;29;8887;-73
2021/08/07 00:17:20;;;;;;;;;12.80;12.80;;;;;25.97;56.34;100020.91;4917521;29;8859;-72
2021/08/07 00:20:16;;;;;;;;;16.60;16.20;;;;;26.17;55.77;100026.34;4915736;29;8867;-73
2021/08/07 00:23:12;;;;;;;;;19.40;19.40;;;;;26.36;55.70;100030.97;4916448;29;8839;-73
2021/08/07 00:26:07;;;;;;;;;15.20;15.20;;;;;26.23;56.57;100036.66;4917370;29;8831;-72
2021/08/07 00:29:03;;;;;;;;;15.40;15.40;;;;;26.09;56.69;100042.00;4917568;29;8831;-75
2021/08/07 00:31:58;;;;;;;;;15.20;15.20;;;;;26.09;56.71;100042.00;4916374;29;8867;-73
2021/08/07 00:34:55;;;;;;;;;14.00;14.00;;;;;25.98;55.60;100040.25;4922145;29;9653;-74
2021/08/07 00:37:50;;;;;;;;;17.00;17.00;;;;;26.00;56.57;100028.50;4934827;29;8837;-73
2021/08/07 00:40:46;;;;;;;;;15.80;15.80;;;;;26.10;57.11;100035.88;4934401;29;8876;-73
2021/08/07 00:43:41;;;;;;;;;16.20;16.20;;;;;26.11;57.26;100034.63;4934781;29;9019;-73
2021/08/07 00:46:37;;;;;;;;;12.40;12.40;;;;;26.21;57.19;100029.84;4935357;29;8849;-73
2021/08/07 00:49:33;;;;;;;;;17.60;17.60;;;;;26.24;57.24;100023.28;4935425;29;8916;-73
2021/08/07 00:52:28;;;;;;;;;21.40;20.60;;;;;25.70;56.61;100022.09;4934864;29;8872;-73
2021/08/07 00:55:24;;;;;;;;;20.60;17.20;;;;;25.92;58.15;100022.25;4934125;29;9611;-72
2021/08/07 00:58:19;;;;;;;;;19.80;19.80;;;;;26.03;57.99;100021.91;4918313;29;8847;-72
2021/08/07 01:01:16;;;;;;;;;24.20;23.20;;;;;25.91;56.17;100017.81;4915505;29;8847;-75
2021/08/07 01:04:19;;;;;;;;;19.60;19.20;;;;;26.09;57.45;100017.28;4916154;29;8847;-73
2021/08/07 01:07:39;;;;;;;;;20.20;19.80;;;;;26.28;57.29;100027.56;4896647;29;8839;-72
2021/08/07 01:10:43;;;;;;;;;22.40;22.40;;;;;26.41;56.83;100030.44;4901304;29;8843;-72
2021/08/07 01:13:46;;;;;;;;;24.60;23.20;;;;;26.48;56.58;100027.38;4901186;29;8950;-73
2021/08/07 01:16:44;;;;;;;;;20.20;19.80;;;;;26.24;57.18;100028.94;4902717;29;8925;-72
2021/08/07 01:20:06;;;;;;;;;18.40;17.60;;;;;26.18;56.85;100037.22;4919548;29;8848;-72
2021/08/07 01:23:15;;;;;;;;;17.60;17.60;;;;;25.93;56.99;100025.88;4919692;29;8879;-73
2021/08/07 01:26:29;;;;;;;;;19.00;18.60;;;;;25.85;57.56;100035.84;4918677;29;8836;-72
2021/08/07 01:29:27;;;;;;;;;20.60;20.60;;;;;25.41;57.96;100030.63;4922072;29;8864;-72
2021/08/07 01:32:31;;;;;;;;;19.60;16.00;;;;;25.44;59.35;100043.88;4918950;29;8841;-73
2021/08/07 01:35:26;;;;;;;;;15.40;15.40;;;;;25.47;57.96;100045.03;4918800;29;8848;-72
2021/08/07 01:38:22;;;;;;;;;13.20;13.20;;;;;25.66;57.81;100052.53;4918685;29;8903;-72
2021/08/07 01:41:22;;;;;;;;;16.40;16.40;;;;;25.70;58.76;100044.75;4918618;29;8967;-72
2021/08/07 01:44:17;;;;;;;;;14.00;14.00;;;;;25.66;58.82;100041.22;4918595;29;8837;-72
2021/08/07 01:47:48;;;;;;;;;15.00;15.00;;;;;25.47;58.97;100043.00;4919802;29;8853;-73
2021/08/07 01:50:46;;;;;;;;;14.80;14.80;;;;;25.55;58.94;100042.78;4918333;29;8970;-72
2021/08/07 01:53:19;;;;;;;;;15.00;15.00;;;;;25.64;59.20;100037.25;4919602;29;8895;-73
2021/08/07 01:56:31;;;;;;;;;16.00;16.00;;;;;25.43;59.36;100039.47;4919254;29;8886;-73
2021/08/07 01:59:27;;;;;;;;;19.60;19.60;;;;;25.73;59.41;100037.41;4918450;29;8836;-72
2021/08/07 02:02:24;;;;;;;;;23.40;23.40;;;;;25.83;59.21;100035.50;4921218;29;8836;-72
2021/08/07 02:05:20;;;;;;;;;16.80;16.80;;;;;26.02;59.27;100037.34;4923970;29;8841;-72
2021/08/07 02:08:17;;;;;;;;;30.40;29.20;;;;;25.82;58.59;100042.41;4936954;29;9575;-72
2021/08/07 02:11:13;;;;;;;;;25.80;25.20;;;;;25.95;59.11;100037.56;4938378;29;8861;-72
2021/08/07 02:14:10;;;;;;;;;41.25;33.50;;;;;25.81;58.95;100046.47;4937179;29;8845;-72
2021/08/07 02:17:06;;;;;;;;;31.25;29.75;;;;;25.64;59.09;100048.59;4938684;29;9606;-72
2021/08/07 02:20:02;;;;;;;;;34.60;30.20;;;;;25.84;59.33;100049.22;4935056;29;8870;-72
2021/08/07 02:22:58;;;;;;;;;33.50;31.50;;;;;25.65;59.53;100039.63;4936858;29;8873;-72
2021/08/07 02:25:59;;;;;;;;;27.20;26.20;;;;;25.50;59.42;100050.59;4938190;29;8873;-72
2021/08/07 02:28:55;;;;;;;;;28.00;26.80;;;;;25.54;59.78;100061.81;4924137;29;8885;-72
2021/08/07 02:31:51;;;;;;;;;19.00;17.60;;;;;25.59;60.25;100057.63;4937354;29;8861;-72
2021/08/07 02:34:48;;;;;;;;;26.80;24.20;;;;;25.59;60.76;100049.91;4936820;29;8860;-72
2021/08/07 02:37:44;;;;;;;;;31.60;29.80;;;;;25.70;60.70;100047.59;4936739;29;8979;-72
2021/08/07 02:40:41;;;;;;;;;26.60;25.60;;;;;25.66;61.19;100043.25;4936371;29;9587;-72
2021/08/07 02:43:37;;;;;;;;;26.60;25.40;;;;;25.63;61.46;100047.78;4938365;29;8955;-72
2021/08/07 02:46:40;;;;;;;;;34.40;29.80;;;;;25.58;61.75;100047.53;4936211;29;8849;-72
2021/08/07 02:49:35;;;;;;;;;25.20;25.20;;;;;25.62;61.55;100040.53;4937801;29;8857;-73
2021/08/07 02:52:33;;;;;;;;;29.60;28.60;;;;;25.46;62.35;100035.75;4937661;29;8883;-73
2021/08/07 02:55:29;;;;;;;;;32.20;29.60;;;;;25.38;62.75;100059.03;4936795;29;8927;-73
2021/08/07 02:58:25;;;;;;;;;31.00;29.50;;;;;25.56;62.27;100058.53;4937341;29;8845;-72
2021/08/07 03:01:22;;;;;;;;;28.80;27.00;;;;;25.57;62.52;100048.78;4923973;29;8912;-72
2021/08/07 03:04:18;;;;;;;;;24.80;22.80;;;;;25.78;62.00;100042.53;4936404;29;8880;-72
2021/08/07 03:07:13;;;;;;;;;22.80;22.80;;;;;25.72;62.23;100039.44;4917108;29;8875;-73
2021/08/07 03:10:09;;;;;;;;;23.00;23.00;;;;;25.62;62.71;100039.75;4917476;29;8883;-73
2021/08/07 03:13:06;;;;;;;;;27.20;26.80;;;;;25.44;63.38;100020.44;4917371;29;8841;-73
2021/08/07 03:16:02;;;;;;;;;22.40;22.40;;;;;25.37;63.35;100010.13;4906686;29;8859;-73
2021/08/07 03:18:57;;;;;;;;;24.20;24.00;;;;;25.33;63.74;100022.81;4918928;29;8840;-73
2021/08/07 03:21:53;;;;;;;;;24.40;24.40;;;;;25.34;63.69;100025.19;4917561;29;8848;-73
2021/08/07 03:24:48;;;;;;;;;21.60;21.60;;;;;25.55;63.41;100046.41;4919805;29;9713;-72
2021/08/07 03:27:44;;;;;;;;;23.40;22.80;;;;;25.49;63.28;100051.03;4916619;29;8900;-72
2021/08/07 03:30:40;;;;;;;;;19.80;19.80;;;;;25.35;63.67;100038.06;4916510;29;8848;-73
2021/08/07 03:33:35;;;;;;;;;20.80;19.60;;;;;25.37;63.76;100043.28;4917470;29;8852;-72
2021/08/07 03:36:31;;;;;;;;;25.60;21.80;;;;;25.43;64.18;100044.34;4917130;29;8832;-73
2021/08/07 03:39:27;;;;;;;;;20.40;20.40;;;;;25.61;63.24;100033.28;4917061;29;8820;-73
2021/08/07 03:42:22;;;;;;;;;20.00;20.00;;;;;25.57;63.64;100026.94;4916796;29;8891;-73
2021/08/07 03:45:18;;;;;;;;;22.40;20.80;;;;;25.72;63.25;100019.63;4916765;29;8909;-73
2021/08/07 03:47:59;;;;;;;;;23.20;23.20;;;;;25.70;63.31;100027.75;4917472;29;8891;-73
2021/08/07 03:50:55;;;;;;;;;16.40;16.40;;;;;25.77;63.45;100040.94;4916820;29;8845;-70
2021/08/07 03:53:50;;;;;;;;;28.60;26.80;;;;;25.76;63.80;100028.81;4916026;29;8864;-72
2021/08/07 03:56:46;;;;;;;;;27.40;27.40;;;;;25.69;63.62;100017.69;4916191;29;8832;-72
2021/08/07 03:59:42;;;;;;;;;26.00;26.00;;;;;25.79;63.64;100029.94;4916950;29;8843;-72
2021/08/07 04:02:38;;;;;;;;;26.40;26.20;;;;;25.82;63.64;100031.88;4916013;29;8844;-73
2021/08/07 04:05:34;;;;;;;;;24.20;24.00;;;;;25.68;64.06;100026.59;4922704;29;8845;-73
2021/08/07 04:08:30;;;;;;;;;23.00;23.00;;;;;25.60;63.49;100031.69;4934832;29;8951;-72
2021/08/07 04:11:25;;;;;;;;;20.20;20.20;;;;;25.72;63.56;100036.63;4922491;29;8865;-73
2021/08/07 04:14:21;;;;;;;;;20.00;18.80;;;;;25.91;63.23;100046.16;4936811;29;8853;-73
2021/08/07 04:16:52;;;;;;;;;19.20;19.20;;;;;25.71;63.31;100042.72;4936997;29;8906;-73
2021/08/07 04:19:47;;;;;;;;;23.80;22.80;;;;;25.56;63.27;100050.84;4922396;29;8869;-73
2021/08/07 04:22:44;;;;;;;;;20.20;20.20;;;;;25.72;63.37;100058.47;4935648;29;9579;-73
2021/08/07 04:25:40;;;;;;;;;20.40;20.40;;;;;25.68;63.65;100057.75;4934622;29;8852;-73
2021/08/07 04:28:08;;;;;;;;;23.00;21.80;;;;;25.79;63.47;100058.28;4936383;29;8877;-74
2021/08/07 04:30:39;;;;;;;;;20.60;20.60;;;;;25.92;63.19;100053.44;4935569;29;8868;-73
2021/08/07 04:33:35;;;;;;;;;22.00;22.00;;;;;26.00;62.72;100042.66;4934413;29;8879;-75
2021/08/07 04:36:31;;;;;;;;;22.20;22.20;;;;;26.17;62.03;100046.97;4934765;29;8837;-72
2021/08/07 04:39:17;;;;;;;;;21.20;20.80;;;;;26.21;62.15;100047.63;4936683;29;8904;-72
2021/08/07 04:42:13;;;;;;;;;20.20;20.20;;;;;26.37;61.66;100049.56;4934707;29;8908;-72
2021/08/07 04:44:41;;;;;;;;;25.20;24.40;;;;;26.30;61.27;100052.63;4938724;29;8939;-73
2021/08/07 04:47:09;;;;;;;;;25.40;25.40;;;;;26.42;61.71;100051.06;4939679;29;8848;-73
2021/08/07 04:50:05;;;;;;;;;27.00;27.00;;;;;26.53;61.78;100046.63;4938337;29;8872;-73
2021/08/07 04:52:38;;;;;;;;;27.20;26.60;;;;;26.54;61.29;100045.38;4938920;29;8869;-73
2021/08/07 04:55:21;;;;;;;;;28.80;28.60;;;;;26.56;61.36;100050.59;4922924;29;8864;-75
2021/08/07 04:57:58;;;;;;;;;27.20;27.20;;;;;26.64;60.90;100051.16;4939858;29;8877;-75
2021/08/07 05:00:39;;;;;;;;;28.00;28.00;;;;;26.63;60.56;100055.25;4924053;29;8873;-73
2021/08/07 05:03:36;;;;;;;;;25.40;25.40;;;;;26.69;60.72;100047.75;4939089;29;8939;-73
2021/08/07 05:06:31;;;;;;;;;24.00;24.00;;;;;26.90;60.27;100047.00;4939185;29;8944;-72
2021/08/07 05:09:27;;;;;;;;;25.80;25.00;;;;;26.80;60.28;100053.84;4938125;29;8943;-73
2021/08/07 05:12:24;;;;;;;;;29.60;29.00;;;;;26.74;60.05;100059.28;4937702;29;8880;-72
2021/08/07 05:14:52;;;;;;;;;27.60;27.60;;;;;26.77;59.44;100057.59;4939142;29;8861;-73
2021/08/07 05:17:47;;;;;;;;;33.40;31.00;;;;;26.68;60.25;100061.09;4937991;29;8853;-74
2021/08/07 05:20:43;;;;;;;;;29.20;29.00;;;;;26.75;59.87;100063.69;4937928;29;8841;-72
2021/08/07 05:23:38;;;;;;;;;30.40;29.60;;;;;27.02;60.45;100073.75;4926642;29;8849;-72
2021/08/07 05:26:34;;;;;;;;;29.60;29.20;;;;;27.24;59.41;100074.63;4938363;29;8861;-74
2021/08/07 05:29:29;;;;;;;;;29.00;28.20;;;;;27.23;58.85;100078.72;4934205;28;8883;-73
2021/08/07 05:32:25;;;;;;;;;32.40;30.40;;;;;27.30;58.30;100058.59;4927138;29;8837;-72
2021/08/07 05:35:23;;;;;;;;;29.00;28.80;;;;;27.27;57.65;100053.81;4939569;29;8860;-73
2021/08/07 05:38:18;;;;;;;;;34.20;31.20;;;;;27.41;57.82;100047.59;4938197;29;8848;-73
2021/08/07 05:41:15;;;;;;;;;31.20;30.00;;;;;27.35;57.96;100051.50;4926186;29;8869;-67
2021/08/07 05:44:12;;;;;;;;;29.00;27.80;;;;;27.59;57.37;100040.47;4939020;29;8955;-73
2021/08/07 05:47:07;;;;;;;;;30.60;29.60;;;;;27.75;57.64;100042.31;4939418;29;8841;-74
2021/08/07 05:49:35;;;;;;;;;33.60;31.60;;;;;27.93;56.73;100037.53;4943240;29;8848;-73
2021/08/07 05:52:03;;;;;;;;;27.60;27.60;;;;;28.05;56.64;100032.22;4938055;29;8965;-73
2021/08/07 05:54:31;;;;;;;;;33.00;31.40;;;;;28.18;56.80;100022.34;4937787;29;8861;-72
2021/08/07 05:56:59;;;;;;;;;32.20;31.00;;;;;28.14;56.86;100016.00;4942512;29;8860;-74
2021/08/07 05:59:27;;;;;;;;;34.40;31.80;;;;;28.10;56.18;100014.56;4938218;29;8849;-73
2021/08/07 06:01:55;;;;;;;;;32.60;31.20;;;;;28.37;55.87;100009.00;4938417;29;8857;-72
2021/08/07 06:04:24;;;;;;;;;28.20;28.00;;;;;28.62;56.06;100007.16;4938489;29;8884;-73
2021/08/07 06:06:52;;;;;;;;;25.00;23.60;;;;;28.77;55.21;100006.06;4938370;29;8864;-73
2021/08/07 06:09:19;;;;;;;;;30.00;29.00;;;;;28.67;55.15;100007.31;4937913;29;8848;-73
2021/08/07 06:11:47;;;;;;;;;31.20;30.20;;;;;28.78;55.28;100006.88;4938509;29;8885;-72
2021/08/07 06:14:15;;;;;;;;;27.40;27.40;;;;;28.95;54.52;100008.16;4938408;29;8883;-72
2021/08/07 06:17:11;;;;;;;;;27.00;27.00;;;;;28.85;53.38;99994.38;4937637;29;8868;-72
2021/08/07 06:20:08;;;;;;;;;28.00;26.40;;;;;28.68;53.68;100006.06;4924876;29;8972;-72
2021/08/07 06:22:36;;;;;;;;;26.80;26.80;;;;;29.06;54.55;100017.03;4937844;29;8928;-73
2021/08/07 06:25:05;;;;;;;;;28.00;27.80;;;;;29.25;53.73;100026.34;4937624;29;9692;-73
2021/08/07 06:28:06;;;;;;;;;27.00;27.00;;;;;29.16;53.19;100012.13;4937755;29;9027;-74
2021/08/07 06:31:02;;;;;;;;;31.00;30.00;;;;;29.46;53.71;100018.09;4937580;29;8836;-75
2021/08/07 06:33:57;;;;;;;;;40.80;35.80;;;;;29.49;53.98;100003.69;4937990;29;8945;-74
2021/08/07 06:36:53;;;;;;;;;25.80;25.80;;;;;29.25;52.34;99997.88;4936644;29;8837;-76
2021/08/07 06:39:48;;;;;;;;;43.80;34.20;;;;;29.30;53.35;99999.31;4938008;29;8853;-75
2021/08/07 06:42:16;;;;;;;;;41.60;36.20;;;;;29.62;52.87;99997.84;4943858;29;8926;-75
2021/08/07 06:44:43;;;;;;;;;30.60;29.60;;;;;29.66;51.40;100004.13;4937627;29;8872;-75
2021/08/07 06:47:39;;;;;;;;;33.60;31.40;;;;;29.88;53.36;100003.91;4941863;29;8848;-75
2021/08/07 06:50:34;;;;;;;;;50.20;42.00;;;;;30.04;53.00;100003.53;4936945;29;8991;-75
2021/08/07 06:53:31;;;;;;;;;38.40;34.80;;;;;30.29;52.01;100012.94;4937008;29;8856;-75
2021/08/07 06:56:13;;;;;;;;;29.20;28.40;;;;;29.93;50.40;100006.13;4922153;29;8861;-75
2021/08/07 06:59:08;;;;;;;;;31.80;30.40;;;;;30.08;50.93;100009.88;4936397;29;8868;-75
2021/08/07 07:02:04;;;;;;;;;13.80;13.80;;;;;30.16;50.27;100001.78;4936784;29;8837;-74
2021/08/07 07:04:59;;;;;;;;;30.40;29.20;;;;;30.00;51.52;100008.63;4935954;29;9032;-75
2021/08/07 07:07:27;;;;;;;;;25.60;25.60;;;;;30.24;50.72;100014.41;4918750;28;8871;-75
2021/08/07 07:10:01;;;;;;;;;30.20;29.20;;;;;30.35;51.27;100008.94;4936984;29;8942;-75
2021/08/07 07:12:29;;;;;;;;;32.20;30.80;;;;;30.44;50.57;100008.09;4936750;29;8868;-74
2021/08/07 07:15:28;;;;;;;;;24.60;24.60;;;;;30.53;48.94;100004.44;4936052;28;8862;-74
2021/08/07 07:18:23;;;;;;;;;27.40;27.40;;;;;30.65;49.04;99995.59;4922992;29;8871;-73
2021/08/07 07:21:19;;;;;;;;;25.80;25.80;;;;;31.14;48.39;100000.03;4934924;29;9064;-73
2021/08/07 07:24:14;;;;;;;;;26.40;25.80;;;;;31.21;47.18;100002.50;4935133;28;8861;-74
2021/08/07 07:27:10;;;;;;;;;29.20;29.00;;;;;31.65;47.85;100004.59;4935330;29;8840;-75
2021/08/07 07:30:07;;;;;;;;;22.00;22.00;;;;;31.87;46.23;100004.22;4935823;29;8920;-73
2021/08/07 07:33:03;;;;;;;;;35.00;30.60;;;;;32.01;45.97;100008.34;4935535;29;8860;-74
2021/08/07 07:35:58;;;;;;;;;30.20;29.00;;;;;32.23;46.43;100013.63;4923047;29;8974;-74
2021/08/07 07:38:41;;;;;;;;;21.80;21.80;;;;;32.38;46.29;100025.06;4936359;29;8973;-74
2021/08/07 07:41:10;;;;;;;;;29.40;28.80;;;;;32.34;45.71;100023.19;4935854;29;9633;-74
2021/08/07 07:44:06;;;;;;;;;27.00;27.00;;;;;32.30;46.77;100025.44;4935308;29;8878;-74
2021/08/07 07:46:34;;;;;;;;;30.40;29.60;;;;;32.16;46.83;100036.91;4937078;29;8873;-76
2021/08/07 07:49:19;;;;;;;;;27.60;27.60;;;;;32.33;46.61;100041.63;4936440;29;8837;-74
2021/08/07 07:51:47;;;;;;;;;30.80;29.00;;;;;32.39;45.47;100050.31;4935693;29;8853;-74
2021/08/07 07:54:15;;;;;;;;;44.40;38.80;;;;;32.65;45.55;100056.13;4935999;29;9578;-73
2021/08/07 07:57:12;;;;;;;;;29.40;29.00;;;;;32.50;44.37;100059.03;4925890;28;8949;-73
2021/08/07 08:00:08;;;;;;;;;27.40;27.40;;;;;32.24;45.26;100053.16;4918557;28;9563;-72
2021/08/07 08:02:36;;;;;;;;;39.00;34.00;;;;;32.51;45.54;100051.25;4932631;28;9559;-72
2021/08/07 08:05:32;;;;;;;;;32.20;30.80;;;;;32.87;44.19;100050.75;4930825;28;8869;-72
2021/08/07 08:08:27;;;;;;;;;45.60;39.60;;;;;33.26;43.46;100049.63;4931455;28;8829;-73
2021/08/07 08:11:17;;;;;;;;;35.40;32.00;;;;;33.24;42.46;100041.56;4932555;28;8868;-72
2021/08/07 08:14:12;;;;;;;;;25.20;23.60;;;;;33.03;42.15;100037.13;4935049;29;8963;-73
2021/08/07 08:17:08;;;;;;;;;28.20;28.20;;;;;33.18;43.17;100034.97;4934969;29;8857;-75
2021/08/07 08:20:09;;;;;;;;;31.40;30.20;;;;;33.41;41.13;100048.28;4935354;29;8845;-74
2021/08/07 08:22:37;;;;;;;;;40.20;34.20;;;;;33.58;41.45;100051.31;4935461;29;8856;-74
2021/08/07 08:25:32;;;;;;;;;41.60;36.40;;;;;33.71;41.03;100053.78;4929092;29;8867;-72
2021/08/07 08:28:14;;;;;;;;;36.00;32.60;;;;;33.04;41.96;100073.84;4934936;29;8959;-73
2021/08/07 08:31:10;;;;;;;;;28.40;28.40;;;;;32.92;42.56;100087.25;4935220;29;8825;-73
2021/08/07 08:34:05;;;;;;;;;25.20;24.80;;;;;32.83;42.78;100095.97;4922248;28;8884;-74
2021/08/07 08:37:01;;;;;;;;;25.20;24.60;;;;;33.23;42.12;100105.09;4933511;28;8864;-74
2021/08/07 08:39:57;;;;;;;;;29.40;28.80;;;;;33.11;41.78;100115.59;4932526;29;8856;-75
2021/08/07 08:42:53;;;;;;;;;25.60;25.40;;;;;33.14;42.29;100118.28;4938925;29;8873;-74
2021/08/07 08:45:48;;;;;;;;;20.40;20.40;;;;;32.93;42.41;100116.69;4929274;29;8844;-74
2021/08/07 08:48:45;;;;;;;;;27.40;27.40;;;;;32.76;42.23;100113.56;4940820;29;8869;-74
2021/08/07 08:51:41;;;;;;;;;26.60;26.00;;;;;32.96;42.64;100106.28;4950193;29;8877;-72
2021/08/07 08:54:23;;;;;;;;;21.00;19.60;;;;;32.85;42.12;100104.88;4935044;29;8862;-73
2021/08/07 08:56:51;;;;;;;;;25.00;25.00;;;;;33.03;42.50;100106.66;4937065;29;8865;-73
2021/08/07 08:59:47;;;;;;;;;22.20;22.20;;;;;33.22;42.68;100106.38;4927706;29;8873;-74
2021/08/07 09:02:43;;;;;;;;;23.00;23.00;;;;;33.10;42.32;100102.56;4952952;29;9015;-74
2021/08/07 09:05:40;;;;;;;;;27.80;27.80;;;;;33.39;41.31;100099.59;4930758;29;8863;-72
2021/08/07 09:09:09;;;;;;;;;21.60;21.60;;;;;33.74;42.28;100092.94;4933551;29;8873;-74
2021/08/07 09:11:55;;;;;;;;;25.60;25.60;;;;;33.49;41.76;100105.16;4917954;29;8843;-73
2021/08/07 09:14:35;;;;;;;;;29.00;28.60;;;;;33.88;41.52;100096.94;4935224;29;8882;-72
2021/08/07 09:17:30;;;;;;;;;21.00;20.80;;;;;34.20;39.76;100110.06;4925350;29;8857;-74
2021/08/07 09:20:30;;;;;;;;;23.60;22.60;;;;;34.17;39.97;100104.56;4951460;29;8861;-73
2021/08/07 09:22:58;;;;;;;;;22.20;21.60;;;;;34.10;40.32;100108.66;4953277;29;8976;-73
2021/08/07 09:25:53;;;;;;;;;20.00;19.60;;;;;34.20;41.88;100101.47;4945290;29;8859;-74
2021/08/07 09:28:55;;;;;;;;;23.60;23.60;;;;;34.08;40.39;100101.88;4954168;28;8855;-73
2021/08/07 09:31:25;;;;;;;;;26.00;26.00;;;;;34.24;40.11;100095.47;4942201;28;8879;-73
2021/08/07 09:34:20;;;;;;;;;28.60;28.00;;;;;34.36;39.86;100093.50;4957541;28;8977;-72
2021/08/07 09:36:56;;;;;;;;;24.20;24.20;;;;;34.47;39.74;100082.91;4939137;29;8868;-73
2021/08/07 09:39:51;;;;;;;;;22.60;21.40;;;;;34.08;40.89;100094.03;4942445;29;8862;-73
2021/08/07 09:42:20;;;;;;;;;23.00;21.80;;;;;34.52;40.53;100078.50;4950240;28;8869;-72
2021/08/07 09:45:16;;;;;;;;;23.80;23.80;;;;;34.67;38.36;100075.47;4956930;28;9011;-73
2021/08/07 09:48:00;;;;;;;;;16.80;16.80;;;;;34.54;39.38;100076.69;4934846;28;8861;-72
2021/08/07 09:50:56;;;;;;;;;21.40;21.40;;;;;34.27;40.41;100089.50;4950069;28;9689;-72
2021/08/07 09:54:03;;;;;;;;;23.40;23.00;;;;;34.18;39.94;100086.03;4938077;29;8857;-73
2021/08/07 09:56:57;;;;;;;;;20.00;20.00;;;;;34.89;38.52;100072.72;4936673;29;8853;-73
2021/08/07 09:59:52;;;;;;;;;19.80;19.80;;;;;34.74;39.92;100072.13;4928841;28;8857;-74
2021/08/07 10:02:48;;;;;;;;;19.00;19.00;;;;;34.80;39.41;100072.91;4957349;28;8841;-74
2021/08/07 10:05:46;;;;;;;;;23.60;22.80;;;;;35.15;40.17;100083.28;4952929;28;8860;-73
2021/08/07 10:08:50;;;;;;;;;24.00;22.20;;;;;35.21;39.53;100084.88;4924813;28;8949;-73
2021/08/07 10:11:32;;;;;;;;;25.40;25.40;;;;;35.11;39.35;100083.53;4936233;28;8907;-74
2021/08/07 10:14:28;;;;;;;;;33.00;30.80;;;;;35.45;38.82;100089.44;4929382;29;8995;-73
2021/08/07 10:17:24;;;;;;;;;43.20;36.80;;;;;35.21;38.79;100089.84;4927888;28;8864;-75
2021/08/07 10:20:21;;;;;;;;;42.60;34.80;;;;;35.17;38.44;100095.81;4952080;28;8911;-74
2021/08/07 10:23:17;;;;;;;;;39.00;33.80;;;;;34.99;40.32;100097.06;4942569;28;8870;-74
2021/08/07 10:26:19;;;;;;;;;34.00;31.00;;;;;35.01;40.60;100091.59;4938648;28;8852;-74
2021/08/07 10:29:18;;;;;;;;;33.60;31.20;;;;;34.66;41.71;100096.84;4943944;28;8864;-72
2021/08/07 10:32:15;;;;;;;;;26.80;25.40;;;;;34.76;41.65;100096.13;4945504;29;8841;-75
2021/08/07 10:35:12;;;;;;;;;27.60;27.60;;;;;35.21;41.23;100095.59;4930838;29;8852;-73
2021/08/07 10:38:08;;;;;;;;;33.20;28.20;;;;;34.55;41.28;100089.72;4936354;29;8855;-73
2021/08/07 10:41:04;;;;;;;;;33.20;31.00;;;;;34.94;40.32;100080.59;4935827;29;8853;-75
2021/08/07 10:44:02;;;;;;;;;31.40;30.00;;;;;35.08;40.51;100076.72;4936552;29;8841;-73
2021/08/07 10:46:58;;;;;;;;;28.00;27.60;;;;;35.16;39.71;100077.03;4936019;29;8919;-73
2021/08/07 10:49:54;;;;;;;;;35.00;31.20;;;;;35.20;40.04;100073.91;4936241;29;8841;-73
2021/08/07 10:52:50;;;;;;;;;28.20;28.00;;;;;34.93;40.12;100081.88;4936006;29;8853;-73
2021/08/07 10:55:56;;;;;;;;;30.80;29.60;;;;;34.73;40.07;100070.50;4914466;29;9615;-72
2021/08/07 10:58:52;;;;;;;;;29.20;28.00;;;;;34.71;40.21;100076.00;4917063;29;8852;-73
2021/08/07 11:01:27;;;;;;;;;27.00;26.80;;;;;34.74;38.92;100066.38;4919761;29;8840;-73
2021/08/07 11:04:28;;;;;;;;;26.60;26.20;;;;;34.75;39.11;100065.84;4950978;28;8860;-73
2021/08/07 11:07:39;;;;;;;;;21.80;21.80;;;;;34.62;40.07;100073.34;4914406;29;8869;-73
2021/08/07 11:10:35;;;;;;;;;25.40;25.00;;;;;34.91;39.92;100078.75;4905949;29;8960;-73
2021/08/07 11:13:38;;;;;;;;;24.80;24.80;;;;;35.30;39.54;100081.00;4907200;29;8855;-72
2021/08/07 11:16:33;;;;;;;;;32.00;30.00;;;;;35.13;38.73;100092.44;4845394;29;8885;-76
2021/08/07 11:19:41;;;;;;;;;35.60;32.20;;;;;35.19;39.27;100093.22;4917590;29;8897;-74
2021/08/07 11:22:09;;;;;;;;;32.00;30.40;;;;;35.34;39.16;100093.00;4928160;29;9635;-74
2021/08/07 11:25:19;;;;;;;;;35.40;32.40;;;;;34.95;39.39;100102.25;4902576;29;8891;-74
2021/08/07 11:28:05;;;;;;;;;37.00;32.40;;;;;34.96;39.93;100098.06;4911679;29;8874;-73
2021/08/07 11:31:16;;;;;;;;;33.40;29.40;;;;;35.05;38.94;100112.25;4906339;29;8958;-73
2021/08/07 11:33:44;;;;;;;;;28.60;28.00;;;;;35.13;39.30;100111.75;4910868;29;8873;-74
2021/08/07 11:36:13;;;;;;;;;32.40;30.80;;;;;35.15;38.92;100103.41;4917341;29;8851;-72
2021/08/07 11:39:09;;;;;;;;;33.60;30.60;;;;;34.70;38.76;100111.75;4910169;29;8870;-73
2021/08/07 11:42:33;;;;;;;;;35.40;31.80;;;;;35.04;38.67;100112.75;4921749;29;9013;-72
2021/08/07 11:45:29;;;;;;;;;29.60;29.00;;;;;35.39;39.18;100109.50;4909328;29;8863;-73
2021/08/07 11:48:26;;;;;;;;;33.60;31.40;;;;;35.13;37.95;100112.53;4910028;29;8843;-72
2021/08/07 11:51:25;;;;;;;;;31.00;30.00;;;;;35.26;37.29;100123.56;4910119;29;8971;-72
2021/08/07 11:54:20;;;;;;;;;32.40;30.80;;;;;35.45;36.84;100116.09;4912653;29;8959;-71
2021/08/07 11:57:26;;;;;;;;;27.20;27.00;;;;;35.34;36.91;100125.41;4912426;29;8893;-72
2021/08/07 12:00:27;;;;;;;;;32.40;30.80;;;;;35.28;37.96;100116.00;4913890;29;8853;-74
2021/08/07 12:03:00;;;;;;;;;38.00;33.80;;;;;35.35;37.71;100123.31;4920030;29;8871;-72
2021/08/07 12:05:50;;;;;;;;;30.60;29.60;;;;;35.34;38.42;100128.28;4923173;29;8873;-72
2021/08/07 12:08:18;;;;;;;;;43.60;37.20;;;;;35.11;37.81;100121.66;4921998;29;8925;-72
2021/08/07 12:11:16;;;;;;;;;44.00;37.20;;;;;35.09;38.24;100129.22;4934852;29;8887;-74
2021/08/07 12:14:13;;;;;;;;;44.80;37.40;;;;;35.47;38.36;100124.19;4938326;29;8893;-72
2021/08/07 12:17:09;;;;;;;;;37.60;33.00;;;;;35.42;38.23;100114.22;4935417;29;8889;-73
2021/08/07 12:20:00;;;;;;;;;44.40;37.40;;;;;35.39;37.91;100124.66;4936075;29;8847;-72
2021/08/07 12:22:53;;;;;;;;;46.00;37.00;;;;;35.80;37.54;100120.59;4949279;28;9614;-72
2021/08/07 12:25:59;;;;;;;;;46.00;38.80;;;;;35.96;36.88;100124.84;4941298;28;8890;-73
2021/08/07 12:29:01;;;;;;;;;53.40;45.00;;;;;35.21;36.94;100124.34;4930716;29;8857;-75
2021/08/07 12:32:03;;;;;;;;;65.80;55.20;;;;;35.06;36.96;100128.19;4938984;28;8962;-73
2021/08/07 12:34:40;;;;;;;;;62.20;49.40;;;;;34.95;36.96;100128.09;4941971;28;8845;-73
2021/08/07 12:37:35;;;;;;;;;50.20;41.40;;;;;35.31;36.47;100125.69;4946135;29;8851;-73
2021/08/07 12:40:31;;;;;;;;;40.00;34.60;;;;;35.32;37.17;100125.16;4939469;28;9580;-73
2021/08/07 12:42:59;;;;;;;;;17.80;17.20;;;;;35.07;36.49;100135.50;4948803;29;8860;-73
2021/08/07 12:46:00;;;;;;;;;32.20;29.00;;;;;34.86;37.37;100134.03;4917611;29;8916;-74
2021/08/07 12:48:59;;;;;;;;;33.80;31.00;;;;;34.69;37.86;100138.91;4930315;29;8870;-73
2021/08/07 12:52:01;;;;;;;;;32.00;30.20;;;;;34.80;37.71;100138.97;4939028;29;8931;-73
2021/08/07 12:54:28;;;;;;;;;28.00;27.20;;;;;34.70;37.79;100149.09;4940925;29;8907;-73
2021/08/07 12:57:28;;;;;;;;;16.60;16.20;;;;;34.86;38.14;100147.63;4943640;29;8915;-73
2021/08/07 13:00:29;;;;;;;;;29.60;27.40;;;;;34.81;37.99;100137.66;4939929;29;8858;-72
2021/08/07 13:03:24;;;;;;;;;25.40;25.20;;;;;34.50;38.13;100145.00;4932927;28;8825;-75
2021/08/07 13:06:24;;;;;;;;;23.40;22.60;;;;;34.76;38.56;100142.09;4929331;29;8937;-73
2021/08/07 13:09:22;;;;;;;;;34.80;32.20;;;;;34.30;38.29;100156.59;4941739;28;8869;-73
2021/08/07 13:12:20;;;;;;;;;25.80;24.00;;;;;33.99;39.13;100151.59;4943259;29;9009;-74